sensor_id;sensor_type;location;lat;lon;timestamp;temperature;humidity
41344;DHT22;27089;50.022;7.604;2023-01-10T00:01:56;5.20;99.90
41344;DHT22;27089;50.022;7.604;2023-01-10T00:04:23;5.10;99.90
41344;DHT22;27089;50.022;7.604;2023-01-10T00:06:51;4.90;99.90
41344;DHT22;27089;50.022;7.604;2023-01-10T00:09:18;4.80;99.90
41344;DHT22;27089;50.022;7.604;2023-01-10T00:11:45;4.70;99.90
41344;DHT22;27089;50.022;7.604;2023-01-10T00:14:29;4.60;99.90
41344;DHT22;27089;50.022;7.604;2023-01-10T00:17:00;4.60;99.90
41344;DHT22;27089;50.022;7.604;2023-01-10T00:19:27;4.50;99.90
41344;DHT22;27089;50.022;7.604;2023-01-10T00:21:55;4.50;99.90
41344;DHT22;27089;50.022;7.604;2023-01-10T00:24:38;4.60;99.90
41344;DHT22;27089;50.022;7.604;2023-01-10T00:27:07;4.60;99.90
41344;DHT22;27089;50.022;7.604;2023-01-10T00:29:40;4.50;99.90
41344;DHT22;27089;50.022;7.604;2023-01-10T00:32:09;4.50;99.90
41344;DHT22;27089;50.022;7.604;2023-01-10T00:34:35;4.40;99.90
41344;DHT22;27089;50.022;7.604;2023-01-10T00:37:02;4.40;99.90
41344;DHT22;27089;50.022;7.604;2023-01-10T00:39:29;4.30;99.90
41344;DHT22;27089;50.022;7.604;2023-01-10T00:41:56;4.30;99.90
41344;DHT22;27089;50.022;7.604;2023-01-10T00:44:41;4.30;99.90
41344;DHT22;27089;50.022;7.604;2023-01-10T00:47:10;4.40;99.90
41344;DHT22;27089;50.022;7.604;2023-01-10T00:49:37;4.50;99.90
41344;DHT22;27089;50.022;7.604;2023-01-10T00:52:05;4.60;99.90
41344;DHT22;27089;50.022;7.604;2023-01-10T00:54:32;4.60;99.90
41344;DHT22;27089;50.022;7.604;2023-01-10T00:56:59;4.70;99.90
41344;DHT22;27089;50.022;7.604;2023-01-10T00:59:26;4.80;99.90
41344;DHT22;27089;50.022;7.604;2023-01-10T01:01:54;4.80;99.90
41344;DHT22;27089;50.022;7.604;2023-01-10T01:04:22;4.90;99.90
41344;DHT22;27089;50.022;7.604;2023-01-10T01:06:49;5.00;99.90
41344;DHT22;27089;50.022;7.604;2023-01-10T01:09:16;5.00;99.90
41344;DHT22;27089;50.022;7.604;2023-01-10T01:11:43;5.00;99.90
41344;DHT22;27089;50.022;7.604;2023-01-10T01:14:10;4.90;99.90
41344;DHT22;27089;50.022;7.604;2023-01-10T01:16:37;4.90;99.90
41344;DHT22;27089;50.022;7.604;2023-01-10T01:19:04;4.90;99.90
41344;DHT22;27089;50.022;7.604;2023-01-10T01:21:32;5.00;99.90
41344;DHT22;27089;50.022;7.604;2023-01-10T01:23:59;5.00;99.90
41344;DHT22;27089;50.022;7.604;2023-01-10T01:26:26;5.00;99.90
41344;DHT22;27089;50.022;7.604;2023-01-10T01:28:53;5.00;99.90
41344;DHT22;27089;50.022;7.604;2023-01-10T01:31:20;5.00;99.90
41344;DHT22;27089;50.022;7.604;2023-01-10T01:33:47;5.00;99.90
41344;DHT22;27089;50.022;7.604;2023-01-10T01:36:16;5.00;99.90
41344;DHT22;27089;50.022;7.604;2023-01-10T01:38:44;5.10;99.90
41344;DHT22;27089;50.022;7.604;2023-01-10T01:41:11;5.10;99.90
41344;DHT22;27089;50.022;7.604;2023-01-10T01:43:59;5.20;99.90
41344;DHT22;27089;50.022;7.604;2023-01-10T01:46:27;5.20;99.90
41344;DHT22;27089;50.022;7.604;2023-01-10T01:48:54;5.20;99.90
41344;DHT22;27089;50.022;7.604;2023-01-10T01:51:23;5.20;99.90
41344;DHT22;27089;50.022;7.604;2023-01-10T01:53:55;5.30;99.90
41344;DHT22;27089;50.022;7.604;2023-01-10T01:56:27;5.20;99.90
41344;DHT22;27089;50.022;7.604;2023-01-10T01:58:57;5.20;99.90
41344;DHT22;27089;50.022;7.604;2023-01-10T02:01:27;5.20;99.90
41344;DHT22;27089;50.022;7.604;2023-01-10T02:04:00;5.20;99.90
41344;DHT22;27089;50.022;7.604;2023-01-10T02:06:29;5.20;99.90
41344;DHT22;27089;50.022;7.604;2023-01-10T02:09:02;5.20;99.90
41344;DHT22;27089;50.022;7.604;2023-01-10T02:11:31;5.30;99.90
41344;DHT22;27089;50.022;7.604;2023-01-10T02:13:58;5.20;99.90
41344;DHT22;27089;50.022;7.604;2023-01-10T02:16:25;5.20;99.90
41344;DHT22;27089;50.022;7.604;2023-01-10T02:18:52;5.20;99.90
41344;DHT22;27089;50.022;7.604;2023-01-10T02:21:36;5.20;99.90
41344;DHT22;27089;50.022;7.604;2023-01-10T02:27:19;5.10;99.90
41344;DHT22;27089;50.022;7.604;2023-01-10T02:32:55;5.10;99.90
41344;DHT22;27089;50.022;7.604;2023-01-10T02:35:32;5.10;99.90
41344;DHT22;27089;50.022;7.604;2023-01-10T02:38:09;5.10;99.90
41344;DHT22;27089;50.022;7.604;2023-01-10T02:40:48;5.10;99.90
41344;DHT22;27089;50.022;7.604;2023-01-10T02:43:21;5.10;99.90
41344;DHT22;27089;50.022;7.604;2023-01-10T02:45:53;5.10;99.90
41344;DHT22;27089;50.022;7.604;2023-01-10T02:48:22;5.10;99.90
41344;DHT22;27089;50.022;7.604;2023-01-10T02:50:53;5.10;99.90
41344;DHT22;27089;50.022;7.604;2023-01-10T02:53:25;5.10;99.90
41344;DHT22;27089;50.022;7.604;2023-01-10T02:58:58;5.10;99.90
41344;DHT22;27089;50.022;7.604;2023-01-10T03:01:33;5.00;99.90
41344;DHT22;27089;50.022;7.604;2023-01-10T03:04:15;5.00;99.90
41344;DHT22;27089;50.022;7.604;2023-01-10T03:06:53;4.90;99.90
41344;DHT22;27089;50.022;7.604;2023-01-10T03:09:28;4.90;99.90
41344;DHT22;27089;50.022;7.604;2023-01-10T03:12:20;5.00;99.90
41344;DHT22;27089;50.022;7.604;2023-01-10T03:14:49;4.90;99.90
41344;DHT22;27089;50.022;7.604;2023-01-10T03:17:17;4.90;99.90
41344;DHT22;27089;50.022;7.604;2023-01-10T03:19:49;4.90;99.90
41344;DHT22;27089;50.022;7.604;2023-01-10T03:22:16;4.90;99.90
41344;DHT22;27089;50.022;7.604;2023-01-10T03:24:46;4.90;99.90
41344;DHT22;27089;50.022;7.604;2023-01-10T03:27:19;4.90;99.90
41344;DHT22;27089;50.022;7.604;2023-01-10T03:29:50;4.90;99.90
41344;DHT22;27089;50.022;7.604;2023-01-10T03:32:22;5.00;99.90
41344;DHT22;27089;50.022;7.604;2023-01-10T03:34:51;5.00;99.90
41344;DHT22;27089;50.022;7.604;2023-01-10T03:37:23;5.00;99.90
41344;DHT22;27089;50.022;7.604;2023-01-10T03:40:00;5.00;99.90
41344;DHT22;27089;50.022;7.604;2023-01-10T03:42:34;5.10;99.90
41344;DHT22;27089;50.022;7.604;2023-01-10T03:45:27;5.10;99.90
41344;DHT22;27089;50.022;7.604;2023-01-10T03:48:00;5.00;99.90
41344;DHT22;27089;50.022;7.604;2023-01-10T03:50:29;5.00;99.90
41344;DHT22;27089;50.022;7.604;2023-01-10T03:52:57;5.00;99.90
41344;DHT22;27089;50.022;7.604;2023-01-10T03:55:27;5.00;99.90
41344;DHT22;27089;50.022;7.604;2023-01-10T03:57:54;5.00;99.90
41344;DHT22;27089;50.022;7.604;2023-01-10T04:00:21;5.00;99.90
41344;DHT22;27089;50.022;7.604;2023-01-10T04:02:48;5.00;99.90
41344;DHT22;27089;50.022;7.604;2023-01-10T04:05:16;4.90;99.90
41344;DHT22;27089;50.022;7.604;2023-01-10T04:07:44;4.90;99.90
41344;DHT22;27089;50.022;7.604;2023-01-10T04:10:12;4.90;99.90
41344;DHT22;27089;50.022;7.604;2023-01-10T04:12:39;5.00;99.90
41344;DHT22;27089;50.022;7.604;2023-01-10T04:15:07;5.00;99.90
41344;DHT22;27089;50.022;7.604;2023-01-10T04:17:34;5.00;99.90
41344;DHT22;27089;50.022;7.604;2023-01-10T04:20:01;5.00;99.90
41344;DHT22;27089;50.022;7.604;2023-01-10T04:22:28;5.00;99.90
41344;DHT22;27089;50.022;7.604;2023-01-10T04:24:56;5.00;99.90
41344;DHT22;27089;50.022;7.604;2023-01-10T04:27:23;5.10;99.90
41344;DHT22;27089;50.022;7.604;2023-01-10T04:29:50;5.00;99.90
41344;DHT22;27089;50.022;7.604;2023-01-10T04:32:18;5.10;99.90
41344;DHT22;27089;50.022;7.604;2023-01-10T04:34:44;5.10;99.90
41344;DHT22;27089;50.022;7.604;2023-01-10T04:37:11;5.10;99.90
41344;DHT22;27089;50.022;7.604;2023-01-10T04:39:38;5.10;99.90
41344;DHT22;27089;50.022;7.604;2023-01-10T04:42:07;5.20;99.90
41344;DHT22;27089;50.022;7.604;2023-01-10T04:44:34;5.20;99.90
41344;DHT22;27089;50.022;7.604;2023-01-10T04:47:01;5.20;99.90
41344;DHT22;27089;50.022;7.604;2023-01-10T04:49:28;5.20;99.90
41344;DHT22;27089;50.022;7.604;2023-01-10T04:51:54;5.20;99.90
41344;DHT22;27089;50.022;7.604;2023-01-10T04:54:21;5.10;99.90
41344;DHT22;27089;50.022;7.604;2023-01-10T04:56:48;5.20;99.90
41344;DHT22;27089;50.022;7.604;2023-01-10T04:59:17;5.20;99.90
41344;DHT22;27089;50.022;7.604;2023-01-10T05:01:44;5.20;99.90
41344;DHT22;27089;50.022;7.604;2023-01-10T05:04:11;5.20;99.90
41344;DHT22;27089;50.022;7.604;2023-01-10T05:06:38;5.20;99.90
41344;DHT22;27089;50.022;7.604;2023-01-10T05:09:05;5.20;99.90
41344;DHT22;27089;50.022;7.604;2023-01-10T05:11:32;5.30;99.90
41344;DHT22;27089;50.022;7.604;2023-01-10T05:13:59;5.30;99.90
41344;DHT22;27089;50.022;7.604;2023-01-10T05:16:28;5.30;99.90
41344;DHT22;27089;50.022;7.604;2023-01-10T05:18:55;5.30;99.90
41344;DHT22;27089;50.022;7.604;2023-01-10T05:21:22;5.40;99.90
41344;DHT22;27089;50.022;7.604;2023-01-10T05:23:49;5.40;99.90
41344;DHT22;27089;50.022;7.604;2023-01-10T05:26:20;5.30;99.90
41344;DHT22;27089;50.022;7.604;2023-01-10T05:28:48;5.30;99.90
41344;DHT22;27089;50.022;7.604;2023-01-10T05:31:17;5.40;99.90
41344;DHT22;27089;50.022;7.604;2023-01-10T05:33:46;5.40;99.90
41344;DHT22;27089;50.022;7.604;2023-01-10T05:36:14;5.30;99.90
41344;DHT22;27089;50.022;7.604;2023-01-10T05:38:44;5.20;99.90
41344;DHT22;27089;50.022;7.604;2023-01-10T05:41:11;5.30;99.90
41344;DHT22;27089;50.022;7.604;2023-01-10T05:43:38;5.20;99.90
41344;DHT22;27089;50.022;7.604;2023-01-10T05:46:05;5.20;99.90
41344;DHT22;27089;50.022;7.604;2023-01-10T05:48:32;5.20;99.90
41344;DHT22;27089;50.022;7.604;2023-01-10T05:51:00;5.20;99.90
41344;DHT22;27089;50.022;7.604;2023-01-10T05:53:28;5.30;99.90
41344;DHT22;27089;50.022;7.604;2023-01-10T05:55:56;5.30;99.90
41344;DHT22;27089;50.022;7.604;2023-01-10T05:58:24;5.30;99.90
41344;DHT22;27089;50.022;7.604;2023-01-10T06:00:53;5.30;99.90
41344;DHT22;27089;50.022;7.604;2023-01-10T06:03:20;5.30;99.90
41344;DHT22;27089;50.022;7.604;2023-01-10T06:05:47;5.30;99.90
41344;DHT22;27089;50.022;7.604;2023-01-10T06:08:16;5.30;99.90
41344;DHT22;27089;50.022;7.604;2023-01-10T06:10:43;5.30;99.90
41344;DHT22;27089;50.022;7.604;2023-01-10T06:13:10;5.30;99.90
41344;DHT22;27089;50.022;7.604;2023-01-10T06:15:37;5.40;99.90
41344;DHT22;27089;50.022;7.604;2023-01-10T06:18:04;5.30;99.90
41344;DHT22;27089;50.022;7.604;2023-01-10T06:20:32;5.30;99.90
41344;DHT22;27089;50.022;7.604;2023-01-10T06:22:59;5.40;99.90
41344;DHT22;27089;50.022;7.604;2023-01-10T06:25:30;5.40;99.90
41344;DHT22;27089;50.022;7.604;2023-01-10T06:27:58;5.40;99.90
41344;DHT22;27089;50.022;7.604;2023-01-10T06:30:25;5.40;99.90
41344;DHT22;27089;50.022;7.604;2023-01-10T06:32:52;5.40;99.90
41344;DHT22;27089;50.022;7.604;2023-01-10T06:35:19;5.40;99.90
41344;DHT22;27089;50.022;7.604;2023-01-10T06:37:46;5.50;99.90
41344;DHT22;27089;50.022;7.604;2023-01-10T06:40:13;5.40;99.90
41344;DHT22;27089;50.022;7.604;2023-01-10T06:42:41;5.40;99.90
41344;DHT22;27089;50.022;7.604;2023-01-10T06:45:09;5.40;99.90
41344;DHT22;27089;50.022;7.604;2023-01-10T06:47:36;5.40;99.90
41344;DHT22;27089;50.022;7.604;2023-01-10T06:50:04;5.40;99.90
41344;DHT22;27089;50.022;7.604;2023-01-10T06:52:31;5.30;99.90
41344;DHT22;27089;50.022;7.604;2023-01-10T06:54:58;5.40;99.90
41344;DHT22;27089;50.022;7.604;2023-01-10T06:57:25;5.40;99.90
41344;DHT22;27089;50.022;7.604;2023-01-10T06:59:54;5.40;99.90
41344;DHT22;27089;50.022;7.604;2023-01-10T07:02:21;5.40;99.90
41344;DHT22;27089;50.022;7.604;2023-01-10T07:04:48;5.30;99.90
41344;DHT22;27089;50.022;7.604;2023-01-10T07:07:15;5.30;99.90
41344;DHT22;27089;50.022;7.604;2023-01-10T07:09:42;5.30;99.90
41344;DHT22;27089;50.022;7.604;2023-01-10T07:12:09;5.40;99.90
41344;DHT22;27089;50.022;7.604;2023-01-10T07:14:36;5.40;99.90
41344;DHT22;27089;50.022;7.604;2023-01-10T07:17:04;5.40;99.90
41344;DHT22;27089;50.022;7.604;2023-01-10T07:19:31;5.40;99.90
41344;DHT22;27089;50.022;7.604;2023-01-10T07:21:58;5.40;99.90
41344;DHT22;27089;50.022;7.604;2023-01-10T07:24:25;5.50;99.90
41344;DHT22;27089;50.022;7.604;2023-01-10T07:26:54;5.50;99.90
41344;DHT22;27089;50.022;7.604;2023-01-10T07:29:21;5.50;99.90
41344;DHT22;27089;50.022;7.604;2023-01-10T07:31:48;5.50;99.90
41344;DHT22;27089;50.022;7.604;2023-01-10T07:34:16;5.40;99.90
41344;DHT22;27089;50.022;7.604;2023-01-10T07:36:43;5.40;99.90
41344;DHT22;27089;50.022;7.604;2023-01-10T07:39:10;5.40;99.90
41344;DHT22;27089;50.022;7.604;2023-01-10T07:41:37;5.50;99.90
41344;DHT22;27089;50.022;7.604;2023-01-10T07:44:04;5.50;99.90
41344;DHT22;27089;50.022;7.604;2023-01-10T07:46:31;5.40;99.90
41344;DHT22;27089;50.022;7.604;2023-01-10T07:48:58;5.50;99.90
41344;DHT22;27089;50.022;7.604;2023-01-10T07:51:26;5.50;99.90
41344;DHT22;27089;50.022;7.604;2023-01-10T07:53:53;5.50;99.90
41344;DHT22;27089;50.022;7.604;2023-01-10T07:56:20;5.50;99.90
41344;DHT22;27089;50.022;7.604;2023-01-10T07:58:47;5.50;99.90
41344;DHT22;27089;50.022;7.604;2023-01-10T08:01:14;5.50;99.90
41344;DHT22;27089;50.022;7.604;2023-01-10T08:03:41;5.40;99.90
41344;DHT22;27089;50.022;7.604;2023-01-10T08:06:09;5.40;99.90
41344;DHT22;27089;50.022;7.604;2023-01-10T08:08:38;5.30;99.90
41344;DHT22;27089;50.022;7.604;2023-01-10T08:11:05;5.40;99.90
41344;DHT22;27089;50.022;7.604;2023-01-10T08:13:32;5.50;99.90
41344;DHT22;27089;50.022;7.604;2023-01-10T08:16:03;5.50;99.90
41344;DHT22;27089;50.022;7.604;2023-01-10T08:18:30;5.60;99.90
41344;DHT22;27089;50.022;7.604;2023-01-10T08:20:58;5.60;99.90
41344;DHT22;27089;50.022;7.604;2023-01-10T08:23:25;5.70;99.90
41344;DHT22;27089;50.022;7.604;2023-01-10T08:25:53;5.70;99.90
41344;DHT22;27089;50.022;7.604;2023-01-10T08:28:20;5.70;99.90
41344;DHT22;27089;50.022;7.604;2023-01-10T08:30:47;5.60;99.90
41344;DHT22;27089;50.022;7.604;2023-01-10T08:33:20;5.70;99.90
41344;DHT22;27089;50.022;7.604;2023-01-10T08:35:48;5.80;99.90
41344;DHT22;27089;50.022;7.604;2023-01-10T08:38:15;6.00;99.90
41344;DHT22;27089;50.022;7.604;2023-01-10T08:40:42;6.00;99.90
41344;DHT22;27089;50.022;7.604;2023-01-10T08:43:11;6.00;99.90
41344;DHT22;27089;50.022;7.604;2023-01-10T08:45:39;6.00;99.90
41344;DHT22;27089;50.022;7.604;2023-01-10T08:48:07;6.00;99.90
41344;DHT22;27089;50.022;7.604;2023-01-10T08:50:35;6.00;99.90
41344;DHT22;27089;50.022;7.604;2023-01-10T08:53:02;6.20;99.90
41344;DHT22;27089;50.022;7.604;2023-01-10T08:55:29;6.30;99.90
41344;DHT22;27089;50.022;7.604;2023-01-10T08:57:58;6.50;99.90
41344;DHT22;27089;50.022;7.604;2023-01-10T09:00:27;6.60;99.90
41344;DHT22;27089;50.022;7.604;2023-01-10T09:02:54;6.70;99.90
41344;DHT22;27089;50.022;7.604;2023-01-10T09:05:21;6.70;99.90
41344;DHT22;27089;50.022;7.604;2023-01-10T09:07:48;6.60;99.90
41344;DHT22;27089;50.022;7.604;2023-01-10T09:10:15;6.60;99.90
41344;DHT22;27089;50.022;7.604;2023-01-10T09:12:42;6.60;99.90
41344;DHT22;27089;50.022;7.604;2023-01-10T09:15:22;6.60;99.90
41344;DHT22;27089;50.022;7.604;2023-01-10T09:17:52;6.60;99.90
41344;DHT22;27089;50.022;7.604;2023-01-10T09:20:19;6.50;99.90
41344;DHT22;27089;50.022;7.604;2023-01-10T09:22:46;6.40;99.90
41344;DHT22;27089;50.022;7.604;2023-01-10T09:25:13;6.40;99.90
41344;DHT22;27089;50.022;7.604;2023-01-10T09:27:40;6.40;99.90
41344;DHT22;27089;50.022;7.604;2023-01-10T09:30:08;6.30;99.90
41344;DHT22;27089;50.022;7.604;2023-01-10T09:32:35;6.30;99.90
41344;DHT22;27089;50.022;7.604;2023-01-10T09:35:04;6.30;99.90
41344;DHT22;27089;50.022;7.604;2023-01-10T09:37:31;6.30;99.90
41344;DHT22;27089;50.022;7.604;2023-01-10T09:39:59;6.30;99.90
41344;DHT22;27089;50.022;7.604;2023-01-10T09:42:50;6.30;99.90
41344;DHT22;27089;50.022;7.604;2023-01-10T09:45:27;6.20;99.90
41344;DHT22;27089;50.022;7.604;2023-01-10T09:48:02;6.20;99.90
41344;DHT22;27089;50.022;7.604;2023-01-10T09:50:38;6.20;99.90
41344;DHT22;27089;50.022;7.604;2023-01-10T09:53:12;6.10;99.90
41344;DHT22;27089;50.022;7.604;2023-01-10T09:55:41;6.10;99.90
41344;DHT22;27089;50.022;7.604;2023-01-10T09:58:11;6.10;99.90
41344;DHT22;27089;50.022;7.604;2023-01-10T10:00:42;6.10;99.90
41344;DHT22;27089;50.022;7.604;2023-01-10T10:03:18;6.10;99.90
41344;DHT22;27089;50.022;7.604;2023-01-10T10:05:49;6.10;99.90
41344;DHT22;27089;50.022;7.604;2023-01-10T10:08:17;6.10;99.90
41344;DHT22;27089;50.022;7.604;2023-01-10T10:10:57;6.10;99.90
41344;DHT22;27089;50.022;7.604;2023-01-10T10:13:34;6.10;99.90
41344;DHT22;27089;50.022;7.604;2023-01-10T10:16:15;6.10;99.90
41344;DHT22;27089;50.022;7.604;2023-01-10T10:18:51;6.00;99.90
41344;DHT22;27089;50.022;7.604;2023-01-10T10:21:30;6.10;99.90
41344;DHT22;27089;50.022;7.604;2023-01-10T10:24:13;6.10;99.90
41344;DHT22;27089;50.022;7.604;2023-01-10T10:26:48;6.10;99.90
41344;DHT22;27089;50.022;7.604;2023-01-10T10:29:34;6.20;99.90
41344;DHT22;27089;50.022;7.604;2023-01-10T10:32:11;6.30;99.90
41344;DHT22;27089;50.022;7.604;2023-01-10T10:34:44;6.60;99.90
41344;DHT22;27089;50.022;7.604;2023-01-10T10:37:19;6.80;99.90
41344;DHT22;27089;50.022;7.604;2023-01-10T10:39:51;7.00;99.90
41344;DHT22;27089;50.022;7.604;2023-01-10T10:42:19;7.10;99.90
41344;DHT22;27089;50.022;7.604;2023-01-10T10:44:50;7.10;99.90
41344;DHT22;27089;50.022;7.604;2023-01-10T10:47:19;7.10;99.90
41344;DHT22;27089;50.022;7.604;2023-01-10T10:49:50;7.10;99.90
41344;DHT22;27089;50.022;7.604;2023-01-10T10:52:23;7.20;99.90
41344;DHT22;27089;50.022;7.604;2023-01-10T10:54:51;7.20;99.90
41344;DHT22;27089;50.022;7.604;2023-01-10T10:57:20;7.40;99.90
41344;DHT22;27089;50.022;7.604;2023-01-10T10:59:49;7.50;99.90
41344;DHT22;27089;50.022;7.604;2023-01-10T11:02:24;7.60;99.90
41344;DHT22;27089;50.022;7.604;2023-01-10T11:04:53;7.60;99.90
41344;DHT22;27089;50.022;7.604;2023-01-10T11:07:23;7.60;99.90
41344;DHT22;27089;50.022;7.604;2023-01-10T11:09:52;7.70;99.90
41344;DHT22;27089;50.022;7.604;2023-01-10T11:12:31;7.80;99.90
41344;DHT22;27089;50.022;7.604;2023-01-10T11:14:58;7.80;99.90
41344;DHT22;27089;50.022;7.604;2023-01-10T11:17:27;7.80;99.90
41344;DHT22;27089;50.022;7.604;2023-01-10T11:19:57;7.70;99.90
41344;DHT22;27089;50.022;7.604;2023-01-10T11:22:27;7.70;99.90
41344;DHT22;27089;50.022;7.604;2023-01-10T11:24:55;7.70;99.90
41344;DHT22;27089;50.022;7.604;2023-01-10T11:27:26;7.70;99.90
41344;DHT22;27089;50.022;7.604;2023-01-10T11:29:56;7.70;99.90
41344;DHT22;27089;50.022;7.604;2023-01-10T11:32:31;7.80;99.90
41344;DHT22;27089;50.022;7.604;2023-01-10T11:35:00;7.80;99.90
41344;DHT22;27089;50.022;7.604;2023-01-10T11:37:30;7.80;99.90
41344;DHT22;27089;50.022;7.604;2023-01-10T11:40:22;7.80;99.90
41344;DHT22;27089;50.022;7.604;2023-01-10T11:42:51;7.70;99.90
41344;DHT22;27089;50.022;7.604;2023-01-10T11:45:28;7.70;99.90
41344;DHT22;27089;50.022;7.604;2023-01-10T11:48:01;7.70;99.90
41344;DHT22;27089;50.022;7.604;2023-01-10T11:50:31;7.80;99.90
41344;DHT22;27089;50.022;7.604;2023-01-10T11:53:00;8.00;99.90
41344;DHT22;27089;50.022;7.604;2023-01-10T11:55:31;8.10;99.90
41344;DHT22;27089;50.022;7.604;2023-01-10T11:58:02;8.20;99.90
41344;DHT22;27089;50.022;7.604;2023-01-10T12:00:33;8.30;99.90
41344;DHT22;27089;50.022;7.604;2023-01-10T12:03:01;8.40;99.90
41344;DHT22;27089;50.022;7.604;2023-01-10T12:05:28;8.40;99.90
41344;DHT22;27089;50.022;7.604;2023-01-10T12:07:56;8.40;99.90
41344;DHT22;27089;50.022;7.604;2023-01-10T12:10:27;8.30;99.90
41344;DHT22;27089;50.022;7.604;2023-01-10T12:12:55;8.20;99.90
41344;DHT22;27089;50.022;7.604;2023-01-10T12:15:26;8.20;99.90
41344;DHT22;27089;50.022;7.604;2023-01-10T12:17:55;8.20;99.90
41344;DHT22;27089;50.022;7.604;2023-01-10T12:20:24;8.10;99.90
41344;DHT22;27089;50.022;7.604;2023-01-10T12:22:55;8.10;99.90
41344;DHT22;27089;50.022;7.604;2023-01-10T12:25:29;8.10;99.90
41344;DHT22;27089;50.022;7.604;2023-01-10T12:27:59;8.00;99.90
41344;DHT22;27089;50.022;7.604;2023-01-10T12:30:30;7.90;99.90
41344;DHT22;27089;50.022;7.604;2023-01-10T12:33:00;7.80;99.90
41344;DHT22;27089;50.022;7.604;2023-01-10T12:35:37;7.70;99.90
41344;DHT22;27089;50.022;7.604;2023-01-10T12:38:10;7.60;99.90
41344;DHT22;27089;50.022;7.604;2023-01-10T12:40:44;7.40;99.90
41344;DHT22;27089;50.022;7.604;2023-01-10T12:43:16;7.30;99.90
41344;DHT22;27089;50.022;7.604;2023-01-10T12:46:07;7.10;99.90
41344;DHT22;27089;50.022;7.604;2023-01-10T12:48:42;7.10;99.90
41344;DHT22;27089;50.022;7.604;2023-01-10T12:51:14;7.00;99.90
41344;DHT22;27089;50.022;7.604;2023-01-10T12:53:45;7.00;99.90
41344;DHT22;27089;50.022;7.604;2023-01-10T12:56:15;7.10;99.90
41344;DHT22;27089;50.022;7.604;2023-01-10T12:58:45;7.10;99.90
41344;DHT22;27089;50.022;7.604;2023-01-10T13:01:16;7.10;99.90
41344;DHT22;27089;50.022;7.604;2023-01-10T13:03:45;7.10;99.90
41344;DHT22;27089;50.022;7.604;2023-01-10T13:06:23;7.10;99.90
41344;DHT22;27089;50.022;7.604;2023-01-10T13:08:51;7.10;99.90
41344;DHT22;27089;50.022;7.604;2023-01-10T13:11:21;7.10;99.90
41344;DHT22;27089;50.022;7.604;2023-01-10T13:13:54;7.10;99.90
41344;DHT22;27089;50.022;7.604;2023-01-10T13:16:27;7.10;99.90
41344;DHT22;27089;50.022;7.604;2023-01-10T13:18:58;7.00;99.90
41344;DHT22;27089;50.022;7.604;2023-01-10T13:21:26;7.00;99.90
41344;DHT22;27089;50.022;7.604;2023-01-10T13:23:58;7.00;99.90
41344;DHT22;27089;50.022;7.604;2023-01-10T13:26:45;7.00;99.90
41344;DHT22;27089;50.022;7.604;2023-01-10T13:29:17;7.00;99.90
41344;DHT22;27089;50.022;7.604;2023-01-10T13:31:45;7.10;99.90
41344;DHT22;27089;50.022;7.604;2023-01-10T13:34:14;7.10;99.90
41344;DHT22;27089;50.022;7.604;2023-01-10T13:36:44;7.10;99.90
41344;DHT22;27089;50.022;7.604;2023-01-10T13:39:22;7.20;99.90
41344;DHT22;27089;50.022;7.604;2023-01-10T13:42:22;7.20;99.90
41344;DHT22;27089;50.022;7.604;2023-01-10T13:45:21;7.20;99.90
41344;DHT22;27089;50.022;7.604;2023-01-10T13:47:57;7.20;99.90
41344;DHT22;27089;50.022;7.604;2023-01-10T13:56:37;7.00;99.90
41344;DHT22;27089;50.022;7.604;2023-01-10T13:59:12;7.00;99.90
41344;DHT22;27089;50.022;7.604;2023-01-10T14:01:58;7.00;99.90
41344;DHT22;27089;50.022;7.604;2023-01-10T14:04:49;7.00;99.90
41344;DHT22;27089;50.022;7.604;2023-01-10T14:07:24;7.00;99.90
41344;DHT22;27089;50.022;7.604;2023-01-10T14:09:58;6.90;99.90
41344;DHT22;27089;50.022;7.604;2023-01-10T14:12:30;6.90;99.90
41344;DHT22;27089;50.022;7.604;2023-01-10T14:15:03;6.80;99.90
41344;DHT22;27089;50.022;7.604;2023-01-10T14:17:33;6.80;99.90
41344;DHT22;27089;50.022;7.604;2023-01-10T14:20:13;6.80;99.90
41344;DHT22;27089;50.022;7.604;2023-01-10T14:22:55;6.80;99.90
41344;DHT22;27089;50.022;7.604;2023-01-10T14:25:25;6.80;99.90
41344;DHT22;27089;50.022;7.604;2023-01-10T14:27:53;6.80;99.90
41344;DHT22;27089;50.022;7.604;2023-01-10T14:30:25;6.80;99.90
41344;DHT22;27089;50.022;7.604;2023-01-10T14:32:54;6.90;99.90
41344;DHT22;27089;50.022;7.604;2023-01-10T14:35:25;6.80;99.90
41344;DHT22;27089;50.022;7.604;2023-01-10T14:37:55;6.70;99.90
41344;DHT22;27089;50.022;7.604;2023-01-10T14:40:28;6.70;99.90
41344;DHT22;27089;50.022;7.604;2023-01-10T14:43:03;6.70;99.90
41344;DHT22;27089;50.022;7.604;2023-01-10T14:45:40;6.70;99.90
41344;DHT22;27089;50.022;7.604;2023-01-10T14:48:25;6.70;99.90
41344;DHT22;27089;50.022;7.604;2023-01-10T14:51:05;6.70;99.90
41344;DHT22;27089;50.022;7.604;2023-01-10T14:53:32;6.70;99.90
41344;DHT22;27089;50.022;7.604;2023-01-10T14:55:59;6.60;99.90
41344;DHT22;27089;50.022;7.604;2023-01-10T14:58:26;6.50;99.90
41344;DHT22;27089;50.022;7.604;2023-01-10T15:00:55;6.60;99.90
41344;DHT22;27089;50.022;7.604;2023-01-10T15:03:24;6.50;99.90
41344;DHT22;27089;50.022;7.604;2023-01-10T15:05:52;6.60;99.90
41344;DHT22;27089;50.022;7.604;2023-01-10T15:08:21;6.50;99.90
41344;DHT22;27089;50.022;7.604;2023-01-10T15:10:50;6.50;99.90
41344;DHT22;27089;50.022;7.604;2023-01-10T15:13:20;6.50;99.90
41344;DHT22;27089;50.022;7.604;2023-01-10T15:15:49;6.50;99.90
41344;DHT22;27089;50.022;7.604;2023-01-10T15:18:35;6.50;99.90
41344;DHT22;27089;50.022;7.604;2023-01-10T15:21:03;6.40;99.90
41344;DHT22;27089;50.022;7.604;2023-01-10T15:23:36;6.40;99.90
41344;DHT22;27089;50.022;7.604;2023-01-10T15:26:06;6.30;99.90
41344;DHT22;27089;50.022;7.604;2023-01-10T15:28:34;6.30;99.90
41344;DHT22;27089;50.022;7.604;2023-01-10T15:31:03;6.30;99.90
41344;DHT22;27089;50.022;7.604;2023-01-10T15:33:32;6.30;99.90
41344;DHT22;27089;50.022;7.604;2023-01-10T15:36:06;6.20;99.90
41344;DHT22;27089;50.022;7.604;2023-01-10T15:38:36;6.20;99.90
41344;DHT22;27089;50.022;7.604;2023-01-10T15:41:05;6.20;99.90
41344;DHT22;27089;50.022;7.604;2023-01-10T15:43:32;6.20;99.90
41344;DHT22;27089;50.022;7.604;2023-01-10T15:46:01;6.20;99.90
41344;DHT22;27089;50.022;7.604;2023-01-10T15:48:32;6.10;99.90
41344;DHT22;27089;50.022;7.604;2023-01-10T15:51:00;6.10;99.90
41344;DHT22;27089;50.022;7.604;2023-01-10T15:53:51;6.10;99.90
41344;DHT22;27089;50.022;7.604;2023-01-10T15:56:22;6.10;99.90
41344;DHT22;27089;50.022;7.604;2023-01-10T15:58:50;6.10;99.90
41344;DHT22;27089;50.022;7.604;2023-01-10T16:01:18;6.10;99.90
41344;DHT22;27089;50.022;7.604;2023-01-10T16:03:48;6.10;99.90
41344;DHT22;27089;50.022;7.604;2023-01-10T16:06:22;6.10;99.90
41344;DHT22;27089;50.022;7.604;2023-01-10T16:08:52;6.10;99.90
41344;DHT22;27089;50.022;7.604;2023-01-10T16:11:26;6.10;99.90
41344;DHT22;27089;50.022;7.604;2023-01-10T16:14:12;6.10;99.90
41344;DHT22;27089;50.022;7.604;2023-01-10T16:16:39;6.10;99.90
41344;DHT22;27089;50.022;7.604;2023-01-10T16:19:07;6.10;99.90
41344;DHT22;27089;50.022;7.604;2023-01-10T16:21:38;6.10;99.90